Time;durP1;ratioP1;P1;durP2;ratioP2;P2;SDS_P1;SDS_P2;PMS_P1;PMS_P2;Temp;Humidity;BMP_temperature;BMP_pressure;BME280_temperature;BME280_humidity;BME280_pressure;Samples;Min_cycle;Max_cycle;Signal;HPM_P1;HPM_P2
2020/12/29 00:02:10;;;;;;;19.60;9.70;;;;;;;;;;5049196;28;20029;-66
2020/12/29 00:04:36;;;;;;;17.48;9.90;;;;;;;;;;5054702;28;20028;-66
2020/12/29 00:07:03;;;;;;;19.60;9.88;;;10.30;59.70;;;;;;5054574;28;20064;-65
2020/12/29 00:09:29;;;;;;;;;;;10.30;60.10;;;;;;5054714;28;20025;-65
2020/12/29 00:11:57;;;;;;;13.57;8.18;;;;;;;;;;5054398;28;19909;-67
2020/12/29 00:14:23;;;;;;;17.15;9.27;;;;;;;;;;5054818;28;20083;-67
2020/12/29 00:16:50;;;;;;;17.88;8.93;;;;;;;;;;5055127;28;20017;-67
2020/12/29 00:19:23;;;;;;;15.43;8.90;;;10.30;59.70;;;;;;5054138;28;20044;-66
2020/12/29 00:21:49;;;;;;;18.02;9.25;;;;;;;;;;5054084;28;20347;-66
2020/12/29 00:24:15;;;;;;;16.15;9.10;;;;;;;;;;5054013;28;20037;-66
2020/12/29 00:26:42;;;;;;;16.92;8.57;;;;;;;;;;5054184;28;20075;-66
2020/12/29 00:29:08;;;;;;;13.65;8.52;;;;;;;;;;5054037;28;20490;-66
2020/12/29 00:31:35;;;;;;;14.30;8.43;;;;;;;;;;5054001;28;20029;-66
2020/12/29 00:34:02;;;;;;;16.83;8.30;;;;;;;;;;5054138;28;20048;-67
2020/12/29 00:36:28;;;;;;;17.23;9.63;;;;;;;;;;5053702;28;20029;-66
2020/12/29 00:38:55;;;;;;;15.98;8.60;;;;;;;;;;5053886;28;20041;-66
2020/12/29 00:41:22;;;;;;;14.73;8.93;;;;;;;;;;5054209;28;20017;-67
2020/12/29 00:43:52;;;;;;;15.40;8.63;;;;;;;;;;5052781;28;20108;-66
2020/12/29 00:46:20;;;;;;;14.63;8.27;;;10.20;59.70;;;;;;5053959;28;20025;-65
2020/12/29 00:48:46;;;;;;;15.43;8.35;;;;;;;;;;5052531;28;20045;-65
2020/12/29 00:51:16;;;;;;;18.70;8.35;;;10.10;59.40;;;;;;5052385;28;20029;-66
2020/12/29 00:53:51;;;;;;;16.10;8.73;;;;;;;;;;5039634;28;20045;-65
2020/12/29 00:56:19;;;;;;;18.95;9.68;;;;;;;;;;5052212;28;20063;-66
2020/12/29 00:58:48;;;;;;;15.10;8.68;;;;;;;;;;5052317;28;20094;-66
2020/12/29 01:01:15;;;;;;;16.08;9.15;;;;;;;;;;5052424;28;20040;-66
2020/12/29 01:04:01;;;;;;;13.50;8.25;;;;;;;;;;5053359;28;20036;-65
2020/12/29 01:06:28;;;;;;;;;;;10.20;59.40;;;;;;5052497;28;20033;-65
2020/12/29 01:08:56;;;;;;;13.82;8.10;;;;;;;;;;5068931;28;19913;-65
2020/12/29 01:11:23;;;;;;;18.60;9.07;;;;;;;;;;5051528;28;20362;-66
2020/12/29 01:13:54;;;;;;;12.43;7.88;;;;;;;;;;5053847;28;20044;-66
2020/12/29 01:16:21;;;;;;;12.82;8.07;;;;;;;;;;5051899;28;20100;-66
2020/12/29 01:18:51;;;;;;;12.93;8.65;;;;;;;;;;5035662;28;20481;-67
2020/12/29 01:21:18;;;;;;;15.13;8.27;;;;;;;;;;5052774;28;20021;-67
2020/12/29 01:23:44;;;;;;;13.93;7.75;;;;;;;;;;5048582;28;20131;-66
2020/12/29 01:26:11;;;;;;;18.00;8.55;;;;;;;;;;5053150;28;20043;-65
2020/12/29 01:28:37;;;;;;;15.60;8.55;;;;;;;;;;5052807;28;20033;-66
2020/12/29 01:31:04;;;;;;;17.17;9.40;;;;;;;;;;5053026;28;20128;-66
2020/12/29 01:33:30;;;;;;;15.13;9.00;;;;;;;;;;5053072;28;20090;-65
2020/12/29 01:35:57;;;;;;;12.55;8.23;;;;;;;;;;5052715;28;20033;-67
2020/12/29 01:38:23;;;;;;;19.88;9.35;;;;;;;;;;5052842;28;20502;-66
2020/12/29 01:40:49;;;;;;;15.30;8.35;;;;;;;;;;5052524;28;20499;-67
2020/12/29 01:43:15;;;;;;;15.90;8.25;;;;;;;;;;5052858;28;20479;-66
2020/12/29 01:45:43;;;;;;;13.70;9.00;;;;;;;;;;5052813;28;20035;-66
2020/12/29 01:48:09;;;;;;;16.95;8.57;;;;;;;;;;5051229;28;20037;-66
2020/12/29 01:50:35;;;;;;;14.73;8.88;;;;;;;;;;5052605;28;20421;-66
2020/12/29 01:53:02;;;;;;;17.45;8.45;;;10.10;59.30;;;;;;5052553;28;20553;-67
2020/12/29 01:55:29;;;;;;;17.38;8.85;;;9.90;59.40;;;;;;5052763;28;20025;-66
2020/12/29 01:58:01;;;;;;;;;;;9.90;60.00;;;;;;5052803;28;20029;-66
2020/12/29 02:00:27;;;;;;;11.73;7.78;;;9.90;59.20;;;;;;5053541;28;19913;-65
2020/12/29 02:02:54;;;;;;;12.00;7.45;;;;;;;;;;5052657;28;20032;-66
2020/12/29 02:05:20;;;;;;;12.80;8.48;;;;;;;;;;5052385;28;20017;-66
2020/12/29 02:07:49;;;;;;;14.38;8.18;;;10.00;59.30;;;;;;5052099;28;20262;-66
2020/12/29 02:10:16;;;;;;;12.68;8.30;;;;;;;;;;5052190;28;20033;-67
2020/12/29 02:12:42;;;;;;;12.68;7.72;;;;;;;;;;5052300;28;20076;-67
2020/12/29 02:15:09;;;;;;;12.15;7.35;;;;;;;;;;5052244;28;20146;-67
2020/12/29 02:17:35;;;;;;;12.23;7.45;;;;;;;;;;5052040;28;20029;-67
2020/12/29 02:20:01;;;;;;;13.48;7.85;;;;;;;;;;5051966;28;20114;-66
2020/12/29 02:22:29;;;;;;;14.95;7.43;;;;;;;;;;5051765;28;20049;-67
2020/12/29 02:24:57;;;;;;;11.90;7.25;;;10.00;58.90;;;;;;5052103;28;20120;-67
2020/12/29 02:27:26;;;;;;;11.35;7.60;;;9.90;58.90;;;;;;5051782;28;20515;-67
2020/12/29 02:29:53;;;;;;;13.70;7.70;;;;;;;;;;5052023;28;20021;-66
2020/12/29 02:32:19;;;;;;;13.68;7.50;;;;;;;;;;5051398;28;20048;-65
2020/12/29 02:34:45;;;;;;;11.95;7.25;;;;;;;;;;5051908;28;20021;-67
2020/12/29 02:37:12;;;;;;;12.13;7.68;;;;;;;;;;5051616;28;20467;-66
2020/12/29 02:39:42;;;;;;;11.93;7.28;;;9.70;59.40;;;;;;5051418;28;20546;-66
2020/12/29 02:42:09;;;;;;;12.50;7.22;;;9.60;59.60;;;;;;5053169;28;20021;-67
2020/12/29 02:44:35;;;;;;;12.20;7.57;;;;;;;;;;5051522;28;20418;-66
2020/12/29 02:47:01;;;;;;;11.15;7.32;;;;;;;;;;5051741;28;20029;-66
2020/12/29 02:49:28;;;;;;;11.80;7.53;;;;;;;;;;5051376;28;20483;-66
2020/12/29 02:51:56;;;;;;;11.35;7.13;;;;;;;;;;5051719;28;20090;-66
2020/12/29 02:54:24;;;;;;;14.27;7.82;;;9.70;59.70;;;;;;5030345;28;20447;-66
2020/12/29 02:56:50;;;;;;;13.30;7.38;;;;;;;;;;5036224;28;20048;-67
2020/12/29 02:59:17;;;;;;;13.48;7.95;;;;;;;;;;5051444;28;20045;-66
2020/12/29 03:01:43;;;;;;;12.35;7.38;;;;;;;;;;5051142;28;20025;-67
2020/12/29 03:04:09;;;;;;;12.80;7.53;;;;;;;;;;5051136;28;20033;-65
2020/12/29 03:06:35;;;;;;;13.93;8.15;;;;;;;;;;5051276;28;20017;-66
2020/12/29 03:09:02;;;;;;;13.25;8.15;;;;;;;;;;5051315;28;20025;-66
2020/12/29 03:11:31;;;;;;;17.80;8.15;;;9.80;59.20;;;;;;5051539;28;20121;-66
2020/12/29 03:14:03;;;;;;;13.63;8.05;;;9.80;59.30;;;;;;5051135;28;20416;-66
2020/12/29 03:16:29;;;;;;;14.70;8.60;;;;;;;;;;5051131;28;20833;-67
2020/12/29 03:18:56;;;;;;;12.98;7.97;;;;;;;;;;5051257;28;20040;-67
2020/12/29 03:21:22;;;;;;;12.73;8.27;;;;;;;;;;5051248;28;20032;-66
2020/12/29 03:23:49;;;;;;;14.05;7.57;;;9.70;59.80;;;;;;5050956;28;20044;-67
2020/12/29 03:26:17;;;;;;;14.48;8.73;;;9.70;60.00;;;;;;5051303;28;20036;-66
2020/12/29 03:28:43;;;;;;;14.88;8.10;;;;;;;;;;5051043;28;20033;-67
2020/12/29 03:31:09;;;;;;;12.45;7.57;;;;;;;;;;5051181;28;20056;-68
2020/12/29 03:33:36;;;;;;;13.50;8.30;;;;;;;;;;5050938;28;20047;-66
2020/12/29 03:36:02;;;;;;;15.98;8.43;;;;;;;;;;5050248;28;20021;-65
2020/12/29 03:38:29;;;;;;;16.42;8.38;;;;;;;;;;5051275;28;20053;-67
2020/12/29 03:40:55;;;;;;;15.05;8.68;;;;;;;;;;5050948;28;20511;-66
2020/12/29 03:43:21;;;;;;;14.43;8.70;;;;;;;;;;5051088;28;20059;-67
2020/12/29 03:45:49;;;;;;;14.85;8.07;;;10.00;59.30;;;;;;5050878;28;20041;-68
2020/12/29 03:48:18;;;;;;;20.70;8.82;;;10.00;59.30;;;;;;5050406;28;20474;-65
2020/12/29 03:50:45;;;;;;;15.05;8.32;;;;;;;;;;5051064;28;20071;-67
2020/12/29 03:53:12;;;;;;;16.83;8.75;;;10.00;59.30;;;;;;5050624;28;20471;-67
2020/12/29 03:55:38;;;;;;;14.13;8.50;;;;;;;;;;5050967;28;20036;-66
2020/12/29 03:58:05;;;;;;;16.63;8.70;;;;;;;;;;5050631;28;20452;-68
2020/12/29 04:00:31;;;;;;;17.42;9.02;;;;;;;;;;5049392;28;20048;-66
2020/12/29 04:02:57;;;;;;;17.45;8.52;;;;;;;;;;5050391;28;20045;-66
2020/12/29 04:05:24;;;;;;;16.92;8.30;;;;;;;;;;5049729;28;20159;-67
2020/12/29 04:07:50;;;;;;;18.50;7.97;;;;;;;;;;5050583;28;20382;-67
2020/12/29 04:10:17;;;;;;;17.92;8.45;;;;;;;;;;5050614;28;20041;-68
2020/12/29 04:12:43;;;;;;;16.02;8.18;;;;;;;;;;5050767;28;20036;-67
2020/12/29 04:15:09;;;;;;;11.30;7.63;;;;;;;;;;5050464;28;20061;-66
2020/12/29 04:17:39;;;;;;;15.93;7.72;;;9.80;59.60;;;;;;5050844;28;20037;-66
2020/12/29 04:20:08;;;;;;;14.52;7.72;;;9.80;59.70;;;;;;5050631;28;20063;-68
2020/12/29 04:22:35;;;;;;;20.20;7.93;;;9.50;60.00;;;;;;5049083;28;20045;-67
2020/12/29 04:25:03;;;;;;;13.35;7.47;;;9.50;60.10;;;;;;5050516;28;20021;-67
2020/12/29 04:27:30;;;;;;;13.15;7.43;;;;;;;;;;5050579;28;20043;-66
2020/12/29 04:29:56;;;;;;;15.52;9.02;;;;;;;;;;5050703;28;20028;-67
2020/12/29 04:32:22;;;;;;;14.55;8.15;;;;;;;;;;5050124;28;20442;-67
2020/12/29 04:34:48;;;;;;;16.35;7.90;;;;;;;;;;5051746;28;20037;-66
2020/12/29 04:37:15;;;;;;;16.00;8.30;;;;;;;;;;5050931;28;20056;-67
2020/12/29 04:39:42;;;;;;;12.93;8.05;;;;;;;;;;5050418;28;20044;-66
2020/12/29 04:42:12;;;;;;;18.60;8.98;;;9.50;60.70;;;;;;5050466;28;20040;-68
2020/12/29 04:44:39;;;;;;;15.98;8.35;;;;;;;;;;5048848;28;20036;-67
2020/12/29 04:47:08;;;;;;;16.92;8.48;;;9.60;60.50;;;;;;5051417;28;20067;-69
2020/12/29 04:49:34;;;;;;;14.20;8.00;;;;;;;;;;5054121;28;20025;-68
2020/12/29 04:52:04;;;;;;;16.80;8.23;;;9.80;60.10;;;;;;5054345;28;20032;-68
2020/12/29 04:54:35;;;;;;;14.63;8.25;;;9.70;60.00;;;;;;5054661;28;20033;-66
2020/12/29 04:57:03;;;;;;;21.92;9.05;;;9.70;60.40;;;;;;5054558;28;20027;-66
2020/12/29 04:59:29;;;;;;;15.10;8.93;;;9.70;60.30;;;;;;5053624;28;20067;-67
2020/12/29 05:01:58;;;;;;;14.93;8.93;;;9.70;60.40;;;;;;5053940;28;20029;-67
2020/12/29 05:04:24;;;;;;;15.95;8.07;;;;;;;;;;5052396;28;20039;-66
2020/12/29 05:06:53;;;;;;;14.35;8.30;;;9.80;60.10;;;;;;5053302;28;20086;-67
2020/12/29 05:09:23;;;;;;;13.45;7.88;;;9.80;60.00;;;;;;5053649;28;20044;-67
2020/12/29 05:11:50;;;;;;;18.67;8.48;;;;;;;;;;5053311;28;20040;-67
2020/12/29 05:14:16;;;;;;;23.58;9.73;;;;;;;;;;5052139;28;20032;-66
2020/12/29 05:16:43;;;;;;;17.58;8.63;;;;;;;;;;5053550;28;20021;-66
2020/12/29 05:19:14;;;;;;;16.23;9.20;;;9.60;60.20;;;;;;5053420;28;20095;-67
2020/12/29 05:21:42;;;;;;;18.90;9.70;;;9.60;60.40;;;;;;5053252;28;20041;-67
2020/12/29 05:24:22;;;;;;;19.45;9.57;;;9.70;60.30;;;;;;5053102;28;20506;-67
2020/12/29 05:26:54;;;;;;;19.95;10.00;;;9.70;60.30;;;;;;5052949;28;20499;-67
2020/12/29 05:29:22;;;;;;;19.67;9.02;;;9.70;60.20;;;;;;5053101;28;20388;-67
2020/12/29 05:31:48;;;;;;;21.00;10.38;;;;;;;;;;5051827;28;20095;-68
2020/12/29 05:34:28;;;;;;;17.67;9.07;;;9.60;60.30;;;;;;5053044;28;20051;-67
2020/12/29 05:36:56;;;;;;;16.48;9.05;;;9.60;60.40;;;;;;5053054;28;20065;-68
2020/12/29 05:39:24;;;;;;;18.13;9.48;;;9.60;60.60;;;;;;5052623;28;20091;-67
2020/12/29 05:41:52;;;;;;;20.38;9.88;;;9.50;60.70;;;;;;5053237;28;20040;-67
2020/12/29 05:44:28;;;;;;;14.35;8.68;;;9.60;60.70;;;;;;5052887;28;20035;-69
2020/12/29 05:46:55;;;;;;;19.65;9.63;;;9.60;60.70;;;;;;5052994;28;20040;-67
2020/12/29 05:49:22;;;;;;;19.42;9.80;;;9.60;60.80;;;;;;5052716;28;20047;-67
2020/12/29 05:51:50;;;;;;;17.80;10.30;;;9.40;61.10;;;;;;5052768;28;20472;-67
2020/12/29 05:54:17;;;;;;;24.38;10.30;;;9.60;61.30;;;;;;5052930;28;20144;-68
2020/12/29 05:56:44;;;;;;;19.95;9.93;;;;;;;;;;5047523;28;20361;-67
2020/12/29 05:59:14;;;;;;;21.08;11.43;;;9.40;60.80;;;;;;5043745;28;20051;-67
2020/12/29 06:01:40;;;;;;;20.77;10.52;;;;;;;;;;5052424;28;20479;-67
2020/12/29 06:04:07;;;;;;;24.10;10.95;;;;;;;;;;5052656;28;20037;-68
2020/12/29 06:06:33;;;;;;;19.85;9.70;;;;;;;;;;5052249;28;20037;-67
2020/12/29 06:09:05;;;;;;;26.25;11.07;;;9.70;60.80;;;;;;5052870;28;20033;-67
2020/12/29 06:11:37;;;;;;;23.13;11.20;;;9.80;60.80;;;;;;5052442;28;20059;-66
2020/12/29 06:14:11;;;;;;;22.05;11.52;;;9.60;60.80;;;;;;5067924;28;20032;-66
2020/12/29 06:16:40;;;;;;;19.73;10.77;;;9.70;60.90;;;;;;5052089;28;20021;-67
2020/12/29 06:19:28;;;;;;;22.13;11.05;;;9.70;61.00;;;;;;5052095;28;20037;-67
2020/12/29 06:22:03;;;;;;;23.05;11.32;;;9.80;60.80;;;;;;5052200;28;20098;-68
2020/12/29 06:24:30;;;;;;;19.50;11.02;;;9.70;60.80;;;;;;5052122;28;20080;-67
2020/12/29 06:27:01;;;;;;;24.42;11.45;;;9.80;60.80;;;;;;5051519;28;20390;-66
2020/12/29 06:29:33;;;;;;;24.05;10.73;;;9.80;60.60;;;;;;5051546;28;20479;-66
2020/12/29 06:32:04;;;;;;;27.08;11.20;;;9.80;60.70;;;;;;5051746;28;20502;-66
2020/12/29 06:34:33;;;;;;;22.17;11.68;;;9.80;60.80;;;;;;5051759;28;20028;-68
2020/12/29 06:37:12;;;;;;;24.45;10.95;;;9.80;60.80;;;;;;5051543;28;20044;-67
2020/12/29 06:39:41;;;;;;;22.08;10.10;;;9.80;60.60;;;;;;5051385;28;20486;-67
2020/12/29 06:42:09;;;;;;;20.48;10.82;;;9.80;60.60;;;;;;5051827;28;20037;-66
2020/12/29 06:44:35;;;;;;;22.92;10.70;;;;;;;;;;5051340;28;20039;-68
2020/12/29 06:47:09;;;;;;;18.40;9.80;;;9.70;60.60;;;;;;5050523;28;20025;-68
2020/12/29 06:49:35;;;;;;;21.77;9.55;;;;;;;;;;5051472;28;20032;-68
2020/12/29 06:52:18;;;;;;;17.02;10.45;;;9.60;60.60;;;;;;5051586;28;20086;-67
2020/12/29 06:54:47;;;;;;;21.40;9.63;;;9.70;60.70;;;;;;5051272;28;20047;-67
2020/12/29 06:57:13;;;;;;;28.17;10.80;;;;;;;;;;5051435;28;20043;-66
2020/12/29 06:59:40;;;;;;;21.60;10.32;;;9.60;60.60;;;;;;5051071;28;20052;-68
2020/12/29 07:02:18;;;;;;;17.60;9.77;;;9.50;60.70;;;;;;5051864;28;20029;-70
2020/12/29 07:04:51;;;;;;;18.58;9.48;;;9.40;60.60;;;;;;5051454;28;20036;-65
2020/12/29 07:07:34;;;;;;;22.80;9.93;;;9.50;60.70;;;;;;4347740;28;10000705;-67
2020/12/29 07:10:11;;;;;;;18.02;10.38;;;9.40;60.90;;;;;;5045299;28;20037;-68
2020/12/29 07:12:44;;;;;;;19.13;9.77;;;9.40;61.00;;;;;;5047903;28;20037;-69
2020/12/29 07:15:14;;;;;;;19.00;10.43;;;9.30;61.10;;;;;;5049153;28;20021;-68
2020/12/29 07:17:40;;;;;;;16.52;9.82;;;;;;;;;;5049010;28;20032;-68
2020/12/29 07:20:13;;;;;;;25.92;10.30;;;9.30;61.20;;;;;;5048249;28;20040;-69
2020/12/29 07:22:40;;;;;;;26.55;9.90;;;;;;;;;;5048894;28;20064;-67
2020/12/29 07:25:06;;;;;;;22.33;10.35;;;;;;;;;;5048452;28;20041;-66
2020/12/29 07:27:33;;;;;;;22.85;10.48;;;;;;;;;;5051178;28;20025;-68
2020/12/29 07:29:59;;;;;;;23.05;10.70;;;9.00;61.90;;;;;;5051327;28;20051;-68
2020/12/29 07:32:27;;;;;;;20.05;11.00;;;9.00;62.00;;;;;;5050286;28;20029;-66
2020/12/29 07:34:53;;;;;;;17.80;9.75;;;;;;;;;;5050616;28;20560;-67
2020/12/29 07:37:21;;;;;;;17.60;10.13;;;9.10;61.80;;;;;;5051214;28;20069;-67
2020/12/29 07:39:47;;;;;;;24.25;9.75;;;;;;;;;;5050415;28;20041;-68
2020/12/29 07:42:14;;;;;;;22.13;9.90;;;9.10;61.50;;;;;;5050637;28;20511;-68
2020/12/29 07:44:42;;;;;;;21.48;10.23;;;9.20;61.50;;;;;;5050686;28;20036;-65
2020/12/29 07:47:08;;;;;;;;;;;9.20;61.90;;;;;;5051140;28;20111;-67
2020/12/29 07:49:35;;;;;;;26.58;9.93;;;;;;;;;;5050398;28;19959;-67
2020/12/29 07:52:01;;;;;;;24.15;10.43;;;;;;;;;;5049316;28;20567;-68
2020/12/29 07:54:27;;;;;;;18.05;9.75;;;;;;;;;;5050538;28;20403;-67
2020/12/29 07:56:54;;;;;;;17.10;9.02;;;;;;;;;;5050511;28;20021;-65
2020/12/29 07:59:21;;;;;;;26.48;11.88;;;;;;;;;;5050444;28;20136;-67
2020/12/29 08:01:58;;;;;;;20.55;9.98;;;9.10;61.10;;;;;;5050678;28;20029;-67
2020/12/29 08:04:33;;;;;;;25.85;10.90;;;9.10;61.30;;;;;;5050416;28;20025;-67
2020/12/29 08:07:07;;;;;;;22.33;9.88;;;9.10;61.60;;;;;;5045838;28;20041;-66
2020/12/29 08:09:46;;;;;;;25.75;10.85;;;9.00;61.80;;;;;;5049828;28;20021;-66
2020/12/29 08:12:16;;;;;;;17.58;10.00;;;9.00;61.70;;;;;;5043127;28;20033;-67
2020/12/29 08:14:42;;;;;;;26.17;10.82;;;;;;;;;;5049787;28;20311;-66
2020/12/29 08:17:09;;;;;;;24.38;10.68;;;;;;;;;;5048928;28;20076;-67
2020/12/29 08:19:36;;;;;;;19.42;10.00;;;9.00;61.90;;;;;;5049525;28;20032;-66
2020/12/29 08:22:10;;;;;;;22.08;10.23;;;9.00;61.60;;;;;;5052191;28;20422;-66
2020/12/29 08:24:36;;;;;;;23.58;9.95;;;;;;;;;;5053576;28;20052;-66
2020/12/29 08:27:03;;;;;;;30.15;11.30;;;;;;;;;;5052768;28;20147;-66
2020/12/29 08:29:31;;;;;;;28.50;11.07;;;9.10;61.80;;;;;;5053382;28;20032;-66
2020/12/29 08:32:09;;;;;;;20.80;10.35;;;9.00;61.70;;;;;;5053823;28;20155;-66
2020/12/29 08:34:38;;;;;;;21.10;10.70;;;9.00;61.80;;;;;;5053568;28;20044;-66
2020/12/29 08:37:05;;;;;;;23.15;10.48;;;9.00;61.60;;;;;;5053293;28;20365;-67
2020/12/29 08:39:50;;;;;;;22.05;11.73;;;9.00;61.60;;;;;;5053517;28;20049;-67
2020/12/29 08:42:18;;;;;;;24.95;11.27;;;9.00;61.50;;;;;;5053467;28;20143;-66
2020/12/29 08:44:44;;;;;;;24.65;11.25;;;;;;;;;;5053721;28;20060;-67
2020/12/29 08:47:12;;;;;;;25.02;11.48;;;9.10;61.40;;;;;;5053819;28;20029;-66
2020/12/29 08:49:38;;;;;;;20.77;10.80;;;;;;;;;;5053001;28;20025;-65
2020/12/29 08:52:05;;;;;;;27.65;11.63;;;9.20;61.20;;;;;;5051884;28;20041;-66
2020/12/29 08:54:36;;;;;;;25.25;11.60;;;9.10;61.40;;;;;;5053103;28;20071;-67
2020/12/29 08:57:05;;;;;;;22.13;10.88;;;9.20;61.10;;;;;;5053889;28;20056;-69
2020/12/29 08:59:40;;;;;;;26.67;11.32;;;9.20;60.90;;;;;;5052756;28;20024;-66
2020/12/29 09:02:09;;;;;;;22.13;11.68;;;9.30;60.70;;;;;;5051225;28;20029;-68
2020/12/29 09:04:37;;;;;;;29.92;10.98;;;9.40;60.40;;;;;;5052408;28;20032;-66
2020/12/29 09:07:11;;;;;;;23.90;10.80;;;9.30;60.50;;;;;;5048504;28;20491;-66
2020/12/29 09:09:52;;;;;;;20.15;11.30;;;9.20;60.50;;;;;;5053227;28;20036;-66
2020/12/29 09:12:35;;;;;;;23.05;10.55;;;9.30;60.40;;;;;;5048855;28;20043;-66
2020/12/29 09:15:07;;;;;;;22.60;10.55;;;9.30;60.20;;;;;;5052529;28;20039;-66
2020/12/29 09:17:43;;;;;;;29.95;11.43;;;9.20;60.40;;;;;;5052604;28;20029;-65
2020/12/29 09:20:10;;;;;;;23.58;10.55;;;;;;;;;;5053053;28;20037;-67
2020/12/29 09:22:47;;;;;;;24.60;11.02;;;9.30;60.30;;;;;;5051221;28;20040;-67
2020/12/29 09:25:30;;;;;;;21.48;10.90;;;9.30;60.10;;;;;;5052671;28;20036;-66
2020/12/29 09:28:18;;;;;;;23.20;11.18;;;9.40;60.10;;;;;;5052779;28;20041;-67
2020/12/29 09:31:04;;;;;;;25.13;10.93;;;9.40;60.10;;;;;;5052614;28;20021;-67
2020/12/29 09:33:30;;;;;;;20.88;10.57;;;;;;;;;;5052013;28;20098;-65
2020/12/29 09:36:02;;;;;;;27.42;11.57;;;;;;;;;;5051972;28;20037;-67
2020/12/29 09:38:28;;;;;;;26.42;11.13;;;;;;;;;;5052570;28;20125;-67
2020/12/29 09:40:55;;;;;;;21.48;11.25;;;;;;;;;;5051811;28;20037;-66
2020/12/29 09:43:22;;;;;;;22.58;11.45;;;;;;;;;;5052923;28;20063;-66
2020/12/29 09:45:48;;;;;;;27.38;11.98;;;;;;;;;;5052722;28;20079;-66
2020/12/29 09:48:15;;;;;;;20.08;11.20;;;9.50;60.20;;;;;;5052017;28;20479;-67
2020/12/29 09:50:42;;;;;;;27.17;12.20;;;;;;;;;;5051585;28;20415;-66
2020/12/29 09:53:08;;;;;;;30.23;12.15;;;;;;;;;;5052131;28;20075;-68
2020/12/29 09:55:35;;;;;;;26.75;12.35;;;;;;;;;;5052064;28;20029;-68
2020/12/29 09:58:01;;;;;;;24.08;11.82;;;;;;;;;;5051741;28;20036;-66
2020/12/29 10:00:27;;;;;;;21.08;11.98;;;;;;;;;;5052069;28;20028;-68
2020/12/29 10:02:53;;;;;;;28.05;12.35;;;;;;;;;;5052177;28;20065;-67
2020/12/29 10:05:20;;;;;;;27.42;14.05;;;;;;;;;;5051737;28;20037;-65
2020/12/29 10:07:46;;;;;;;29.85;14.20;;;9.40;60.80;;;;;;5051655;28;20079;-66
2020/12/29 10:10:13;;;;;;;36.05;14.90;;;;;;;;;;5051358;28;20055;-65
2020/12/29 10:12:39;;;;;;;32.17;15.38;;;;;;;;;;5052096;28;20036;-66
2020/12/29 10:15:05;;;;;;;32.40;15.07;;;;;;;;;;5051605;28;20371;-66
2020/12/29 10:17:32;;;;;;;32.97;15.05;;;9.80;60.10;;;;;;5051727;28;20032;-66
2020/12/29 10:19:58;;;;;;;;;;;9.80;60.60;;;;;;5052006;28;20029;-66
2020/12/29 10:22:27;;;;;;;38.55;16.58;;;9.80;60.00;;;;;;5051803;28;19916;-67
2020/12/29 10:24:53;;;;;;;33.10;16.05;;;;;;;;;;5051391;28;20395;-65
2020/12/29 10:27:20;;;;;;;36.33;16.77;;;;;;;;;;5051359;28;20039;-67
2020/12/29 10:29:46;;;;;;;34.67;17.20;;;9.90;60.20;;;;;;5051413;28;20053;-67
2020/12/29 10:32:13;;;;;;;36.33;17.73;;;;;;;;;;5050034;28;20030;-67
2020/12/29 10:34:39;;;;;;;40.08;18.40;;;;;;;;;;5051167;28;20048;-67
2020/12/29 10:37:10;;;;;;;31.58;17.55;;;9.90;60.70;;;;;;5051195;28;20037;-68
2020/12/29 10:39:37;;;;;;;41.33;19.73;;;;;;;;;;5048881;28;20068;-67
2020/12/29 10:42:04;;;;;;;41.35;21.92;;;;;;;;;;5051033;28;20040;-67
2020/12/29 10:44:31;;;;;;;42.70;20.67;;;;;;;;;;5050493;28;20029;-67
2020/12/29 10:46:57;;;;;;;41.38;20.20;;;;;;;;;;5051166;28;20107;-66
2020/12/29 10:49:23;;;;;;;42.75;18.70;;;;;;;;;;5049602;28;20039;-67
2020/12/29 10:51:50;;;;;;;42.95;21.23;;;;;;;;;;5050264;28;20045;-67
2020/12/29 10:54:16;;;;;;;44.20;20.02;;;;;;;;;;5048873;28;20033;-67
2020/12/29 10:56:43;;;;;;;41.95;20.08;;;;;;;;;;5048891;28;20033;-66
2020/12/29 10:59:10;;;;;;;43.60;21.05;;;;;;;;;;5049968;28;20041;-68
2020/12/29 11:01:36;;;;;;;46.72;21.73;;;;;;;;;;5050525;28;20094;-68
2020/12/29 11:04:03;;;;;;;44.72;20.90;;;;;;;;;;5050545;28;20091;-66
2020/12/29 11:06:29;;;;;;;51.33;20.65;;;10.10;60.70;;;;;;5050217;28;20156;-67
2020/12/29 11:08:56;;;;;;;46.67;21.38;;;;;;;;;;5050106;28;20117;-67
2020/12/29 11:11:22;;;;;;;39.88;20.63;;;;;;;;;;5050353;28;20037;-68
2020/12/29 11:13:48;;;;;;;44.40;19.55;;;;;;;;;;5050594;28;20029;-67
2020/12/29 11:16:19;;;;;;;43.20;18.98;;;10.00;61.00;;;;;;5050522;28;20064;-66
2020/12/29 11:18:47;;;;;;;39.97;18.63;;;10.00;61.30;;;;;;5050356;28;20101;-67
2020/12/29 11:21:17;;;;;;;35.95;16.92;;;10.00;61.00;;;;;;5050810;28;20041;-68
2020/12/29 11:23:44;;;;;;;35.38;16.30;;;;;;;;;;5049954;28;20140;-66
2020/12/29 11:26:16;;;;;;;33.50;16.75;;;10.00;61.10;;;;;;5051005;28;20025;-67
2020/12/29 11:28:43;;;;;;;32.05;16.00;;;;;;;;;;5050346;28;20072;-66
2020/12/29 11:31:16;;;;;;;32.22;14.88;;;10.00;60.60;;;;;;4698529;28;10000196;-66
2020/12/29 11:33:43;;;;;;;28.50;14.35;;;;;;;;;;5048442;28;20033;-66
2020/12/29 11:36:09;;;;;;;23.15;12.82;;;9.90;60.80;;;;;;5046147;28;20029;-66
2020/12/29 11:38:35;;;;;;;23.15;12.50;;;;;;;;;;5046339;28;20032;-66
2020/12/29 11:41:02;;;;;;;25.50;12.48;;;;;;;;;;5041025;28;20414;-63
2020/12/29 11:43:28;;;;;;;30.10;13.50;;;;;;;;;;5047168;28;20033;-65
2020/12/29 11:45:55;;;;;;;30.08;14.20;;;;;;;;;;5048166;28;20025;-65
2020/12/29 11:48:21;;;;;;;29.42;14.10;;;;;;;;;;5047143;28;20032;-65
2020/12/29 11:50:48;;;;;;;33.10;15.60;;;;;;;;;;5048134;28;20090;-66
2020/12/29 11:53:14;;;;;;;34.58;17.83;;;;;;;;;;5047369;28;20029;-65
2020/12/29 11:55:41;;;;;;;40.67;18.25;;;;;;;;;;5048811;28;20094;-65
2020/12/29 11:58:07;;;;;;;38.28;20.00;;;;;;;;;;5052218;28;20151;-66
2020/12/29 12:00:33;;;;;;;47.35;19.70;;;;;;;;;;5051709;28;20025;-67
2020/12/29 12:03:00;;;;;;;45.90;21.00;;;;;;;;;;5051550;28;20570;-66
2020/12/29 12:05:26;;;;;;;44.78;20.85;;;;;;;;;;5051267;28;20040;-64
2020/12/29 12:07:52;;;;;;;49.90;21.70;;;;;;;;;;5051891;28;20045;-68
2020/12/29 12:10:18;;;;;;;41.55;21.10;;;;;;;;;;5051806;28;20040;-65
2020/12/29 12:12:45;;;;;;;51.53;22.83;;;;;;;;;;5051846;28;20453;-67
2020/12/29 12:15:11;;;;;;;43.33;22.92;;;;;;;;;;5052428;28;20130;-64
2020/12/29 12:17:38;;;;;;;44.88;20.45;;;;;;;;;;5052784;28;20029;-67
2020/12/29 12:20:04;;;;;;;52.60;24.17;;;9.70;63.00;;;;;;5053375;28;20113;-67
2020/12/29 12:22:30;;;;;;;45.72;21.40;;;;;;;;;;5053615;28;20033;-68
2020/12/29 12:24:57;;;;;;;47.13;21.48;;;;;;;;;;5053641;28;20098;-67
2020/12/29 12:27:23;;;;;;;35.70;17.52;;;;;;;;;;5053985;28;20025;-68
2020/12/29 12:29:49;;;;;;;48.28;20.90;;;;;;;;;;5053452;28;20408;-65
2020/12/29 12:32:15;;;;;;;37.70;17.80;;;;;;;;;;5053491;28;20094;-67
2020/12/29 12:34:42;;;;;;;38.42;17.70;;;;;;;;;;5053350;28;20031;-67
2020/12/29 12:37:09;;;;;;;35.00;17.15;;;;;;;;;;5053219;28;20388;-67
2020/12/29 12:39:36;;;;;;;35.10;17.23;;;9.50;63.00;;;;;;5052904;28;20601;-66
2020/12/29 12:42:02;;;;;;;39.25;17.00;;;;;;;;;;5053490;28;20071;-65
2020/12/29 12:44:28;;;;;;;34.70;16.58;;;;;;;;;;5053381;28;20028;-67
2020/12/29 12:46:55;;;;;;;41.17;16.55;;;;;;;;;;5048544;28;20045;-65
2020/12/29 12:49:21;;;;;;;31.17;17.38;;;;;;;;;;5046538;28;20111;-67
2020/12/29 12:51:47;;;;;;;36.25;14.80;;;9.60;62.60;;;;;;5052730;28;20028;-65
2020/12/29 12:54:14;;;;;;;31.73;15.27;;;9.60;62.90;;;;;;5053101;28;20041;-66
2020/12/29 12:56:44;;;;;;;36.03;16.92;;;;;;;;;;5053453;28;20040;-66
2020/12/29 12:59:13;;;;;;;34.10;16.05;;;9.80;62.30;;;;;;5053172;28;20033;-67
2020/12/29 13:01:40;;;;;;;28.23;15.77;;;;;;;;;;5053195;28;20059;-66
2020/12/29 13:04:07;;;;;;;;;;;9.80;62.20;;;;;;5053134;28;20033;-66
2020/12/29 13:06:33;;;;;;;29.40;14.00;;;;;;;;;;5052330;28;19915;-65
2020/12/29 13:09:01;;;;;;;28.88;14.00;;;;;;;;;;5051378;28;20479;-66
2020/12/29 13:11:27;;;;;;;27.08;14.23;;;;;;;;;;5049529;28;20029;-66
2020/12/29 13:13:55;;;;;;;34.13;15.65;;;;;;;;;;5052604;28;20550;-66
2020/12/29 13:16:22;;;;;;;30.00;14.82;;;9.50;62.60;;;;;;5052546;28;20040;-67
2020/12/29 13:18:49;;;;;;;28.38;14.05;;;9.50;63.00;;;;;;5052179;28;20025;-65
2020/12/29 13:21:16;;;;;;;31.15;14.43;;;9.40;62.90;;;;;;5052205;28;20390;-65
2020/12/29 13:23:43;;;;;;;28.05;14.10;;;;;;;;;;5052578;28;20044;-65
2020/12/29 13:26:13;;;;;;;24.77;12.98;;;9.60;62.10;;;;;;5052807;28;20056;-65
2020/12/29 13:28:40;;;;;;;33.25;15.13;;;9.70;62.30;;;;;;5052006;28;20365;-66
2020/12/29 13:31:08;;;;;;;28.80;14.02;;;9.80;61.90;;;;;;5052187;28;20054;-65
2020/12/29 13:33:34;;;;;;;26.70;13.45;;;;;;;;;;5052330;28;20471;-65
2020/12/29 13:36:01;;;;;;;28.70;13.30;;;;;;;;;;5051319;28;20443;-65
2020/12/29 13:38:27;;;;;;;29.05;13.65;;;;;;;;;;5051247;28;20033;-66
2020/12/29 13:40:54;;;;;;;27.67;13.88;;;;;;;;;;5051732;28;20542;-68
2020/12/29 13:43:20;;;;;;;29.73;14.68;;;;;;;;;;5052038;28;20360;-69
2020/12/29 13:45:46;;;;;;;28.65;13.75;;;;;;;;;;5051170;28;20032;-69